Tokuyo Maru No.15 — JD2184 — position and weather

sailwx.info

Track history (hours):
 
Tides and Currents Weather Stations Pressure Air Temp Water Temp Dewpoint Dewpoint Depression Visibility Wind Speed Wind Dir Waves Ship Positions

Tokuyo Maru No.15

Last reported at 2018-Feb-22 07:41 UTC. Time now 2018-Feb-22 09:25 UTC.
Position N 34°32' E 137°23'.

Length 66 m; draft 4.5 m.

Type: Tanker. MMSI: 431402034.

Date/timePositionNaut miles runAvg speedWind from/ knotsBaromVisibWave heightAir tempDewpointWater temp
2018-Feb-22 07:41N 34°32' E 137°23'612.6
2018-Feb-22 07:13N 34°32' E 137°16'2011.7
2018-Feb-22 05:30N 34°38' E 136°53'612.4
2018-Feb-22 05:01N 34°43' E 136°48'612.4
2018-Feb-22 04:31N 34°49' E 136°45'612.2
2018-Feb-22 04:00N 34°54' E 136°42'5 9.2
2018-Feb-22 03:31N 34°59' E 136°40'0 0.2
2018-Feb-22 02:58N 34°59' E 136°40'0 0.0
2018-Feb-22 02:30N 34°59' E 136°40'0 0.0
2018-Feb-22 02:01N 34°59' E 136°40'0 0.0
2018-Feb-22 01:31N 34°59' E 136°40'0 0.0
2018-Feb-22 01:01N 34°59' E 136°40'0 0.0
2018-Feb-22 00:31N 34°59' E 136°40'0 0.0
2018-Feb-22 00:01N 34°59' E 136°40'0 0.0
2018-Feb-21 23:31N 34°59' E 136°40'1 1.8
2018-Feb-21 23:00N 34°58' E 136°41'0 1.0
2018-Feb-21 22:30N 34°58' E 136°41'0 0.0
2018-Feb-21 22:00N 34°58' E 136°41'0 0.0
2018-Feb-21 21:30N 34°58' E 136°41'0 0.0
2018-Feb-21 21:00N 34°58' E 136°41'0 0.1
2018-Feb-21 20:24N 34°58' E 136°41'0 0.0
2018-Feb-21 19:54N 34°58' E 136°41'0 0.0
2018-Feb-21 19:30N 34°58' E 136°41'0 0.1
2018-Feb-21 19:00N 34°58' E 136°41'0 0.1
2018-Feb-21 18:30N 34°58' E 136°41'0 0.0
2018-Feb-21 17:54N 34°58' E 136°41'0 0.0
2018-Feb-21 17:30N 34°58' E 136°41'0 0.0
2018-Feb-21 17:00N 34°58' E 136°41'0 0.0
2018-Feb-21 16:30N 34°58' E 136°41'0 0.1
2018-Feb-21 16:00N 34°58' E 136°41'0 0.1
2018-Feb-21 15:30N 34°58' E 136°41'0 0.1
2018-Feb-21 15:00N 34°58' E 136°41'0 0.0
2018-Feb-21 14:30N 34°58' E 136°41'0 0.0
2018-Feb-21 14:00N 34°58' E 136°41'0 0.0
2018-Feb-21 13:30N 34°58' E 136°41'0 0.0
2018-Feb-21 13:00N 34°58' E 136°41'0 0.0
2018-Feb-21 12:30N 34°58' E 136°41'0 0.0
2018-Feb-21 12:00N 34°58' E 136°41'0 0.1
2018-Feb-21 11:30N 34°58' E 136°41'0 0.1
2018-Feb-21 11:00N 34°58' E 136°41'0 0.0
2018-Feb-21 10:30N 34°58' E 136°41'0 0.1
2018-Feb-21 10:00N 34°58' E 136°41'0 0.0
2018-Feb-21 09:30N 34°58' E 136°41'0 0.0
2018-Feb-21 09:00N 34°58' E 136°41'0 0.0
2018-Feb-21 08:30N 34°58' E 136°41'0 0.0
2018-Feb-21 08:00N 34°58' E 136°41'0 0.0
2018-Feb-21 07:30N 34°58' E 136°41'0 0.0
2018-Feb-21 07:00N 34°58' E 136°41'0 0.0
2018-Feb-21 06:24N 34°58' E 136°41'0 0.0
2018-Feb-21 05:54N 34°58' E 136°41'0 0.1
2018-Feb-21 05:30N 34°58' E 136°41'0 0.1
2018-Feb-21 05:00N 34°58' E 136°41'0 0.1
2018-Feb-21 04:30N 34°58' E 136°41'0 0.0
2018-Feb-21 04:00N 34°58' E 136°41'0 0.1
2018-Feb-21 03:30N 34°58' E 136°41'0 0.1
2018-Feb-21 03:00N 34°58' E 136°41'0 0.0
2018-Feb-21 02:30N 34°58' E 136°41'0 0.1
2018-Feb-21 02:00N 34°58' E 136°41'0 0.0
2018-Feb-21 01:30N 34°58' E 136°41'3 7.1
2018-Feb-21 01:00N 34°54' E 136°42'612.4
2018-Feb-21 00:30N 34°49' E 136°46'1012.0
2018-Feb-20 23:39N 34°40' E 136°52'103 8.1
2018-Feb-20 10:55N 33°51' E 135°02'512.1
2018-Feb-20 10:28N 33°56' E 134°57'611.8
2018-Feb-20 09:57N 34°00' E 134°53'512.2
2018-Feb-20 09:30N 34°04' E 134°48'612.3
2018-Feb-20 09:00N 34°09' E 134°44'712.9
2018-Feb-20 08:29N 34°15' E 134°39'612.1
2018-Feb-20 07:59N 34°18' E 134°32'3 6.8
2018-Feb-20 07:29N 34°19' E 134°28'0 0.7
2018-Feb-20 06:58N 34°19' E 134°28'1 1.3
2018-Feb-20 06:11N 34°19' E 134°27'2 7.7
2018-Feb-20 05:54N 34°20' E 134°24'19 0.6
2018-Feb-18 22:56N 34°27' E 134°03'2412.4
2018-Feb-18 20:59N 34°19' E 134°30'612.4
2018-Feb-18 20:28N 34°16' E 134°38'511.4
2018-Feb-18 20:00N 34°11' E 134°41'611.3
2018-Feb-18 19:29N 34°07' E 134°45'5 9.5
2018-Feb-18 19:00N 34°03' E 134°49'4 7.7
2018-Feb-18 18:30N 34°07' E 134°46'611.3
2018-Feb-18 18:00N 34°02' E 134°50'611.4
2018-Feb-18 17:30N 33°58' E 134°55'611.4
2018-Feb-18 16:56N 33°53' E 134°60'104 8.2
2018-Feb-18 04:17N 34°38' E 136°53'312.5
2018-Feb-18 04:01N 34°41' E 136°50'712.8
2018-Feb-18 03:30N 34°46' E 136°46'612.6
2018-Feb-18 03:00N 34°52' E 136°43'612.1
2018-Feb-18 02:30N 34°58' E 136°41'1 2.1
2018-Feb-18 01:59N 34°59' E 136°40'0 0.0
2018-Feb-18 01:29N 34°59' E 136°40'0 0.0
2018-Feb-18 00:59N 34°59' E 136°40'0 0.0
2018-Feb-18 00:23N 34°59' E 136°40'0 0.0
2018-Feb-17 23:59N 34°59' E 136°40'0 0.0
2018-Feb-17 23:29N 34°59' E 136°40'1 2.2
2018-Feb-17 23:00N 34°58' E 136°41'0 0.4
2018-Feb-17 22:28N 34°58' E 136°41'0 0.0
2018-Feb-17 21:58N 34°58' E 136°41'0 0.0
2018-Feb-17 21:30N 34°58' E 136°41'0 0.0
2018-Feb-17 21:00N 34°58' E 136°41'0 0.0
2018-Feb-17 20:30N 34°58' E 136°41'0 0.0
2018-Feb-17 20:01N 34°58' E 136°41'0 0.0
2018-Feb-17 19:31N 34°58' E 136°41'0 0.0
2018-Feb-17 19:00N 34°58' E 136°41'0 0.0
2018-Feb-17 18:30N 34°58' E 136°41'0 0.0
2018-Feb-17 18:00N 34°58' E 136°41'0 0.0
2018-Feb-17 17:31N 34°58' E 136°41'0 0.0
2018-Feb-17 17:00N 34°58' E 136°41'0 0.0
2018-Feb-17 16:31N 34°58' E 136°41'0 0.0
2018-Feb-17 16:00N 34°58' E 136°41'0 0.0
2018-Feb-17 15:30N 34°58' E 136°41'0 0.0
2018-Feb-17 15:00N 34°58' E 136°41'0 0.0
2018-Feb-17 14:30N 34°58' E 136°41'0 0.0
2018-Feb-17 14:00N 34°58' E 136°41'0 0.0
2018-Feb-17 13:30N 34°58' E 136°41'0 0.0
2018-Feb-17 13:00N 34°58' E 136°41'0 0.1
2018-Feb-17 12:30N 34°58' E 136°41'0 0.1
2018-Feb-17 12:00N 34°58' E 136°41'0 0.0
2018-Feb-17 11:30N 34°58' E 136°41'0 0.0
2018-Feb-17 11:00N 34°58' E 136°41'0 0.0
2018-Feb-17 10:30N 34°58' E 136°41'2 3.0
2018-Feb-17 10:00N 34°56' E 136°41'611.3
2018-Feb-17 09:30N 34°51' E 136°44'511.1
2018-Feb-17 09:00N 34°46' E 136°48'510.9
2018-Feb-17 08:30N 34°42' E 136°52'104 7.7
2018-Feb-16 19:03N 33°51' E 135°02'112.7
2018-Feb-16 19:00N 33°51' E 135°02'612.3
2018-Feb-16 18:30N 33°57' E 135°00'612.7
2018-Feb-16 18:00N 34°03' E 134°59'613.0
2018-Feb-16 17:30N 34°10' E 134°59'714.2
2018-Feb-16 17:01N 34°17' E 134°58'713.4
2018-Feb-16 16:30N 34°24' E 134°60'612.8
2018-Feb-16 16:00N 34°30' E 135°01'612.7
2018-Feb-16 15:31N 34°36' E 135°02'612.8
2018-Feb-16 15:00N 34°35' E 134°54'612.3
2018-Feb-16 14:30N 34°33' E 134°48'612.0
2018-Feb-16 14:00N 34°31' E 134°41'612.1
2018-Feb-16 13:30N 34°28' E 134°34'612.2
2018-Feb-16 12:59N 34°26' E 134°27'7 0.6
2018-Feb-16 00:40N 34°19' E 134°30'212.7
2018-Feb-16 00:30N 34°18' E 134°32'612.6
2018-Feb-16 00:00N 34°15' E 134°39'813.0
2018-Feb-15 23:24N 34°08' E 134°43'1 1.1
2018-Feb-15 22:55N 34°08' E 134°44'0 0.5
2018-Feb-15 22:30N 34°08' E 134°44'2 4.6
2018-Feb-15 22:00N 34°06' E 134°46'3 6.8
2018-Feb-15 21:30N 34°04' E 134°49'4 7.7
2018-Feb-15 20:59N 34°01' E 134°52'3 6.7
2018-Feb-15 20:30N 34°01' E 134°48'711.7
2018-Feb-15 19:57N 33°56' E 134°54'611.6
2018-Feb-15 19:23N 33°52' E 134°60'104 7.9
2018-Feb-15 06:10N 34°38' E 136°53'211.3
2018-Feb-15 06:00N 34°40' E 136°51'611.6
2018-Feb-15 05:30N 34°45' E 136°47'611.7
2018-Feb-15 05:01N 34°50' E 136°44'611.5
2018-Feb-15 04:30N 34°55' E 136°42'4 7.7
2018-Feb-15 04:00N 34°59' E 136°40'0 0.1
2018-Feb-15 03:30N 34°59' E 136°40'0 0.0
2018-Feb-15 03:00N 34°59' E 136°40'0 0.0
2018-Feb-15 02:30N 34°59' E 136°40'0 0.0
2018-Feb-15 02:00N 34°59' E 136°40'0 0.0
2018-Feb-15 01:30N 34°59' E 136°40'0 0.0
2018-Feb-15 01:00N 34°59' E 136°40'0 0.0
2018-Feb-15 00:30N 34°59' E 136°40'0 0.0
2018-Feb-14 23:59N 34°59' E 136°40'1 2.2
2018-Feb-14 23:30N 34°58' E 136°41'1 1.1
2018-Feb-14 22:59N 34°58' E 136°40'0 0.0
2018-Feb-14 22:19N 34°58' E 136°40'0 0.0
2018-Feb-14 21:55N 34°58' E 136°40'0 0.0
2018-Feb-14 21:25N 34°58' E 136°40'0 0.0
2018-Feb-14 20:58N 34°58' E 136°40'0 0.0
2018-Feb-14 20:28N 34°58' E 136°40'0 0.0
2018-Feb-14 19:55N 34°58' E 136°40'0 0.0
2018-Feb-14 19:25N 34°58' E 136°40'0 0.0
2018-Feb-14 18:58N 34°58' E 136°40'0 0.0
2018-Feb-14 18:25N 34°58' E 136°40'0 0.0
2018-Feb-14 17:58N 34°58' E 136°40'0 0.0
2018-Feb-14 17:25N 34°58' E 136°40'0 0.0
2018-Feb-14 16:58N 34°58' E 136°40'0 0.0
2018-Feb-14 16:28N 34°58' E 136°40'0 0.0
2018-Feb-14 15:55N 34°58' E 136°40'0 0.0
2018-Feb-14 15:25N 34°58' E 136°40'0 0.0
2018-Feb-14 14:58N 34°58' E 136°40'0 0.0
2018-Feb-14 14:22N 34°58' E 136°40'0 0.0
2018-Feb-14 13:58N 34°58' E 136°40'0 0.1
2018-Feb-14 13:28N 34°58' E 136°40'0 0.1
2018-Feb-14 12:58N 34°58' E 136°40'0 0.0
2018-Feb-14 12:28N 34°58' E 136°40'0 0.0
2018-Feb-14 11:55N 34°58' E 136°40'0 0.0
2018-Feb-14 11:28N 34°58' E 136°40'0 0.0
2018-Feb-14 10:58N 34°58' E 136°40'0 0.2
2018-Feb-14 10:30N 34°58' E 136°40'3 6.3
2018-Feb-14 10:00N 34°55' E 136°42'612.4
2018-Feb-14 09:30N 34°49' E 136°45'254 9.4
2018-Feb-13 06:24N 33°21' E 131°58'912.4
2018-Feb-13 05:42N 33°29' E 131°55'2712.6
2018-Feb-13 03:35N 33°55' E 131°46'112.9
2018-Feb-13 03:30N 33°56' E 131°46'510.3
2018-Feb-13 02:59N 34°01' E 131°47'2 0.5
2018-Feb-12 23:33N 34°02' E 131°48'0 1.1
2018-Feb-12 23:29N 34°02' E 131°48'1 1.2
2018-Feb-12 22:59N 34°02' E 131°48'0 0.1
2018-Feb-12 21:18N 34°02' E 131°48'0 0.1
2018-Feb-12 20:48N 34°02' E 131°48'0 0.1
2018-Feb-12 20:24N 34°02' E 131°48'0 0.0
2018-Feb-12 19:06N 34°02' E 131°48'0 0.0
2018-Feb-12 18:48N 34°02' E 131°48'0 0.1
2018-Feb-12 18:18N 34°02' E 131°48'0 0.1
2018-Feb-12 17:42N 34°02' E 131°48'1 0.2
2018-Feb-12 14:13N 34°01' E 131°48'311.2
2018-Feb-12 13:59N 33°60' E 131°46'14 9.6
2018-Feb-12 12:33N 33°50' E 131°57'410.2
2018-Feb-12 12:11N 33°47' E 132°00'210.7
2018-Feb-12 12:00N 33°46' E 132°02'1111.1
2018-Feb-12 10:59N 33°50' E 132°15'1810.9
2018-Feb-12 09:19N 33°54' E 132°36'310.4
2018-Feb-12 08:59N 33°56' E 132°40'510.7
2018-Feb-12 08:28N 33°60' E 132°44'  
Track history (hours):
 
Tides and Currents Weather Stations Pressure Air Temp Water Temp Dewpoint Dewpoint Depression Visibility Wind Speed Wind Dir Waves Ship Positions

Tokuyo Maru No.15

Last reported at 2018-Feb-22 07:41 UTC. Time now 2018-Feb-22 09:25 UTC.
Position N 34°32' E 137°23'.

Length 66 m; draft 4.5 m.

Type: Tanker. MMSI: 431402034.

Date/timePositionNaut miles runAvg speedWind from/ knotsBaromVisibWave heightAir tempDewpointWater temp
2018-Feb-22 07:41N 34°32' E 137°23'612.6
2018-Feb-22 07:13N 34°32' E 137°16'2011.7
2018-Feb-22 05:30N 34°38' E 136°53'612.4
2018-Feb-22 05:01N 34°43' E 136°48'612.4
2018-Feb-22 04:31N 34°49' E 136°45'612.2
2018-Feb-22 04:00N 34°54' E 136°42'5 9.2
2018-Feb-22 03:31N 34°59' E 136°40'0 0.2
2018-Feb-22 02:58N 34°59' E 136°40'0 0.0
2018-Feb-22 02:30N 34°59' E 136°40'0 0.0
2018-Feb-22 02:01N 34°59' E 136°40'0 0.0
2018-Feb-22 01:31N 34°59' E 136°40'0 0.0
2018-Feb-22 01:01N 34°59' E 136°40'0 0.0
2018-Feb-22 00:31N 34°59' E 136°40'0 0.0
2018-Feb-22 00:01N 34°59' E 136°40'0 0.0
2018-Feb-21 23:31N 34°59' E 136°40'1 1.8
2018-Feb-21 23:00N 34°58' E 136°41'0 1.0
2018-Feb-21 22:30N 34°58' E 136°41'0 0.0
2018-Feb-21 22:00N 34°58' E 136°41'0 0.0
2018-Feb-21 21:30N 34°58' E 136°41'0 0.0
2018-Feb-21 21:00N 34°58' E 136°41'0 0.1
2018-Feb-21 20:24N 34°58' E 136°41'0 0.0
2018-Feb-21 19:54N 34°58' E 136°41'0 0.0
2018-Feb-21 19:30N 34°58' E 136°41'0 0.1
2018-Feb-21 19:00N 34°58' E 136°41'0 0.1
2018-Feb-21 18:30N 34°58' E 136°41'0 0.0
2018-Feb-21 17:54N 34°58' E 136°41'0 0.0
2018-Feb-21 17:30N 34°58' E 136°41'0 0.0
2018-Feb-21 17:00N 34°58' E 136°41'0 0.0
2018-Feb-21 16:30N 34°58' E 136°41'0 0.1
2018-Feb-21 16:00N 34°58' E 136°41'0 0.1
2018-Feb-21 15:30N 34°58' E 136°41'0 0.1
2018-Feb-21 15:00N 34°58' E 136°41'0 0.0
2018-Feb-21 14:30N 34°58' E 136°41'0 0.0
2018-Feb-21 14:00N 34°58' E 136°41'0 0.0
2018-Feb-21 13:30N 34°58' E 136°41'0 0.0
2018-Feb-21 13:00N 34°58' E 136°41'0 0.0
2018-Feb-21 12:30N 34°58' E 136°41'0 0.0
2018-Feb-21 12:00N 34°58' E 136°41'0 0.1
2018-Feb-21 11:30N 34°58' E 136°41'0 0.1
2018-Feb-21 11:00N 34°58' E 136°41'0 0.0
2018-Feb-21 10:30N 34°58' E 136°41'0 0.1
2018-Feb-21 10:00N 34°58' E 136°41'0 0.0
2018-Feb-21 09:30N 34°58' E 136°41'0 0.0
2018-Feb-21 09:00N 34°58' E 136°41'0 0.0
2018-Feb-21 08:30N 34°58' E 136°41'0 0.0
2018-Feb-21 08:00N 34°58' E 136°41'0 0.0
2018-Feb-21 07:30N 34°58' E 136°41'0 0.0
2018-Feb-21 07:00N 34°58' E 136°41'0 0.0
2018-Feb-21 06:24N 34°58' E 136°41'0 0.0
2018-Feb-21 05:54N 34°58' E 136°41'0 0.1
2018-Feb-21 05:30N 34°58' E 136°41'0 0.1
2018-Feb-21 05:00N 34°58' E 136°41'0 0.1
2018-Feb-21 04:30N 34°58' E 136°41'0 0.0
2018-Feb-21 04:00N 34°58' E 136°41'0 0.1
2018-Feb-21 03:30N 34°58' E 136°41'0 0.1
2018-Feb-21 03:00N 34°58' E 136°41'0 0.0
2018-Feb-21 02:30N 34°58' E 136°41'0 0.1
2018-Feb-21 02:00N 34°58' E 136°41'0 0.0
2018-Feb-21 01:30N 34°58' E 136°41'3 7.1
2018-Feb-21 01:00N 34°54' E 136°42'612.4
2018-Feb-21 00:30N 34°49' E 136°46'1012.0
2018-Feb-20 23:39N 34°40' E 136°52'103 8.1
2018-Feb-20 10:55N 33°51' E 135°02'512.1
2018-Feb-20 10:28N 33°56' E 134°57'611.8
2018-Feb-20 09:57N 34°00' E 134°53'512.2
2018-Feb-20 09:30N 34°04' E 134°48'612.3
2018-Feb-20 09:00N 34°09' E 134°44'712.9
2018-Feb-20 08:29N 34°15' E 134°39'612.1
2018-Feb-20 07:59N 34°18' E 134°32'3 6.8
2018-Feb-20 07:29N 34°19' E 134°28'0 0.7
2018-Feb-20 06:58N 34°19' E 134°28'1 1.3
2018-Feb-20 06:11N 34°19' E 134°27'2 7.7
2018-Feb-20 05:54N 34°20' E 134°24'19 0.6
2018-Feb-18 22:56N 34°27' E 134°03'2412.4
2018-Feb-18 20:59N 34°19' E 134°30'612.4
2018-Feb-18 20:28N 34°16' E 134°38'511.4
2018-Feb-18 20:00N 34°11' E 134°41'611.3
2018-Feb-18 19:29N 34°07' E 134°45'5 9.5
2018-Feb-18 19:00N 34°03' E 134°49'4 7.7
2018-Feb-18 18:30N 34°07' E 134°46'611.3
2018-Feb-18 18:00N 34°02' E 134°50'611.4
2018-Feb-18 17:30N 33°58' E 134°55'611.4
2018-Feb-18 16:56N 33°53' E 134°60'104 8.2
2018-Feb-18 04:17N 34°38' E 136°53'312.5
2018-Feb-18 04:01N 34°41' E 136°50'712.8
2018-Feb-18 03:30N 34°46' E 136°46'612.6
2018-Feb-18 03:00N 34°52' E 136°43'612.1
2018-Feb-18 02:30N 34°58' E 136°41'1 2.1
2018-Feb-18 01:59N 34°59' E 136°40'0 0.0
2018-Feb-18 01:29N 34°59' E 136°40'0 0.0
2018-Feb-18 00:59N 34°59' E 136°40'0 0.0
2018-Feb-18 00:23N 34°59' E 136°40'0 0.0
2018-Feb-17 23:59N 34°59' E 136°40'0 0.0
2018-Feb-17 23:29N 34°59' E 136°40'1 2.2
2018-Feb-17 23:00N 34°58' E 136°41'0 0.4
2018-Feb-17 22:28N 34°58' E 136°41'0 0.0
2018-Feb-17 21:58N 34°58' E 136°41'0 0.0
2018-Feb-17 21:30N 34°58' E 136°41'0 0.0
2018-Feb-17 21:00N 34°58' E 136°41'0 0.0
2018-Feb-17 20:30N 34°58' E 136°41'0 0.0
2018-Feb-17 20:01N 34°58' E 136°41'0 0.0
2018-Feb-17 19:31N 34°58' E 136°41'0 0.0
2018-Feb-17 19:00N 34°58' E 136°41'0 0.0
2018-Feb-17 18:30N 34°58' E 136°41'0 0.0
2018-Feb-17 18:00N 34°58' E 136°41'0 0.0
2018-Feb-17 17:31N 34°58' E 136°41'0 0.0
2018-Feb-17 17:00N 34°58' E 136°41'0 0.0
2018-Feb-17 16:31N 34°58' E 136°41'0 0.0
2018-Feb-17 16:00N 34°58' E 136°41'0 0.0
2018-Feb-17 15:30N 34°58' E 136°41'0 0.0
2018-Feb-17 15:00N 34°58' E 136°41'0 0.0
2018-Feb-17 14:30N 34°58' E 136°41'0 0.0
2018-Feb-17 14:00N 34°58' E 136°41'0 0.0
2018-Feb-17 13:30N 34°58' E 136°41'0 0.0
2018-Feb-17 13:00N 34°58' E 136°41'0 0.1
2018-Feb-17 12:30N 34°58' E 136°41'0 0.1
2018-Feb-17 12:00N 34°58' E 136°41'0 0.0
2018-Feb-17 11:30N 34°58' E 136°41'0 0.0
2018-Feb-17 11:00N 34°58' E 136°41'0 0.0
2018-Feb-17 10:30N 34°58' E 136°41'2 3.0
2018-Feb-17 10:00N 34°56' E 136°41'611.3
2018-Feb-17 09:30N 34°51' E 136°44'511.1
2018-Feb-17 09:00N 34°46' E 136°48'510.9
2018-Feb-17 08:30N 34°42' E 136°52'104 7.7
2018-Feb-16 19:03N 33°51' E 135°02'112.7
2018-Feb-16 19:00N 33°51' E 135°02'612.3
2018-Feb-16 18:30N 33°57' E 135°00'612.7
2018-Feb-16 18:00N 34°03' E 134°59'613.0
2018-Feb-16 17:30N 34°10' E 134°59'714.2
2018-Feb-16 17:01N 34°17' E 134°58'713.4
2018-Feb-16 16:30N 34°24' E 134°60'612.8
2018-Feb-16 16:00N 34°30' E 135°01'612.7
2018-Feb-16 15:31N 34°36' E 135°02'612.8
2018-Feb-16 15:00N 34°35' E 134°54'612.3
2018-Feb-16 14:30N 34°33' E 134°48'612.0
2018-Feb-16 14:00N 34°31' E 134°41'612.1
2018-Feb-16 13:30N 34°28' E 134°34'612.2
2018-Feb-16 12:59N 34°26' E 134°27'7 0.6
2018-Feb-16 00:40N 34°19' E 134°30'212.7
2018-Feb-16 00:30N 34°18' E 134°32'612.6
2018-Feb-16 00:00N 34°15' E 134°39'813.0
2018-Feb-15 23:24N 34°08' E 134°43'1 1.1
2018-Feb-15 22:55N 34°08' E 134°44'0 0.5
2018-Feb-15 22:30N 34°08' E 134°44'2 4.6
2018-Feb-15 22:00N 34°06' E 134°46'3 6.8
2018-Feb-15 21:30N 34°04' E 134°49'4 7.7
2018-Feb-15 20:59N 34°01' E 134°52'3 6.7
2018-Feb-15 20:30N 34°01' E 134°48'711.7
2018-Feb-15 19:57N 33°56' E 134°54'611.6
2018-Feb-15 19:23N 33°52' E 134°60'104 7.9
2018-Feb-15 06:10N 34°38' E 136°53'211.3
2018-Feb-15 06:00N 34°40' E 136°51'611.6
2018-Feb-15 05:30N 34°45' E 136°47'611.7
2018-Feb-15 05:01N 34°50' E 136°44'611.5
2018-Feb-15 04:30N 34°55' E 136°42'4 7.7
2018-Feb-15 04:00N 34°59' E 136°40'0 0.1
2018-Feb-15 03:30N 34°59' E 136°40'0 0.0
2018-Feb-15 03:00N 34°59' E 136°40'0 0.0
2018-Feb-15 02:30N 34°59' E 136°40'0 0.0
2018-Feb-15 02:00N 34°59' E 136°40'0 0.0
2018-Feb-15 01:30N 34°59' E 136°40'0 0.0
2018-Feb-15 01:00N 34°59' E 136°40'0 0.0
2018-Feb-15 00:30N 34°59' E 136°40'0 0.0
2018-Feb-14 23:59N 34°59' E 136°40'1 2.2
2018-Feb-14 23:30N 34°58' E 136°41'1 1.1
2018-Feb-14 22:59N 34°58' E 136°40'0 0.0
2018-Feb-14 22:19N 34°58' E 136°40'0 0.0
2018-Feb-14 21:55N 34°58' E 136°40'0 0.0
2018-Feb-14 21:25N 34°58' E 136°40'0 0.0
2018-Feb-14 20:58N 34°58' E 136°40'0 0.0
2018-Feb-14 20:28N 34°58' E 136°40'0 0.0
2018-Feb-14 19:55N 34°58' E 136°40'0 0.0
2018-Feb-14 19:25N 34°58' E 136°40'0 0.0
2018-Feb-14 18:58N 34°58' E 136°40'0 0.0
2018-Feb-14 18:25N 34°58' E 136°40'0 0.0
2018-Feb-14 17:58N 34°58' E 136°40'0 0.0
2018-Feb-14 17:25N 34°58' E 136°40'0 0.0
2018-Feb-14 16:58N 34°58' E 136°40'0 0.0
2018-Feb-14 16:28N 34°58' E 136°40'0 0.0
2018-Feb-14 15:55N 34°58' E 136°40'0 0.0
2018-Feb-14 15:25N 34°58' E 136°40'0 0.0
2018-Feb-14 14:58N 34°58' E 136°40'0 0.0
2018-Feb-14 14:22N 34°58' E 136°40'0 0.0
2018-Feb-14 13:58N 34°58' E 136°40'0 0.1
2018-Feb-14 13:28N 34°58' E 136°40'0 0.1
2018-Feb-14 12:58N 34°58' E 136°40'0 0.0
2018-Feb-14 12:28N 34°58' E 136°40'0 0.0
2018-Feb-14 11:55N 34°58' E 136°40'0 0.0
2018-Feb-14 11:28N 34°58' E 136°40'0 0.0
2018-Feb-14 10:58N 34°58' E 136°40'0 0.2
2018-Feb-14 10:30N 34°58' E 136°40'3 6.3
2018-Feb-14 10:00N 34°55' E 136°42'612.4
2018-Feb-14 09:30N 34°49' E 136°45'254 9.4
2018-Feb-13 06:24N 33°21' E 131°58'912.4
2018-Feb-13 05:42N 33°29' E 131°55'2712.6
2018-Feb-13 03:35N 33°55' E 131°46'112.9
2018-Feb-13 03:30N 33°56' E 131°46'510.3
2018-Feb-13 02:59N 34°01' E 131°47'2 0.5
2018-Feb-12 23:33N 34°02' E 131°48'0 1.1
2018-Feb-12 23:29N 34°02' E 131°48'1 1.2
2018-Feb-12 22:59N 34°02' E 131°48'0 0.1
2018-Feb-12 21:18N 34°02' E 131°48'0 0.1
2018-Feb-12 20:48N 34°02' E 131°48'0 0.1
2018-Feb-12 20:24N 34°02' E 131°48'0 0.0
2018-Feb-12 19:06N 34°02' E 131°48'0 0.0
2018-Feb-12 18:48N 34°02' E 131°48'0 0.1
2018-Feb-12 18:18N 34°02' E 131°48'0 0.1
2018-Feb-12 17:42N 34°02' E 131°48'1 0.2
2018-Feb-12 14:13N 34°01' E 131°48'311.2
2018-Feb-12 13:59N 33°60' E 131°46'14 9.6
2018-Feb-12 12:33N 33°50' E 131°57'410.2
2018-Feb-12 12:11N 33°47' E 132°00'210.7
2018-Feb-12 12:00N 33°46' E 132°02'1111.1
2018-Feb-12 10:59N 33°50' E 132°15'1810.9
2018-Feb-12 09:19N 33°54' E 132°36'310.4
2018-Feb-12 08:59N 33°56' E 132°40'510.7
2018-Feb-12 08:28N 33°60' E 132°44'  

Dump ship's entire track history